sensor_id;sensor_type;location;lat;lon;timestamp;P1;durP1;ratioP1;P2;durP2;ratioP2
6695;SDS011;3385;48.928;10.330;2022-09-17T00:00:04;0.88;;;0.32;;
6695;SDS011;3385;48.928;10.330;2022-09-17T00:02:30;0.00;;;0.00;;
6695;SDS011;3385;48.928;10.330;2022-09-17T00:04:56;0.65;;;0.20;;
6695;SDS011;3385;48.928;10.330;2022-09-17T00:07:21;0.20;;;0.00;;
6695;SDS011;3385;48.928;10.330;2022-09-17T00:09:47;0.00;;;0.00;;
6695;SDS011;3385;48.928;10.330;2022-09-17T00:12:13;0.10;;;0.00;;
6695;SDS011;3385;48.928;10.330;2022-09-17T00:14:39;0.22;;;0.00;;
6695;SDS011;3385;48.928;10.330;2022-09-17T00:17:05;0.00;;;0.00;;
6695;SDS011;3385;48.928;10.330;2022-09-17T00:19:30;0.00;;;0.00;;
6695;SDS011;3385;48.928;10.330;2022-09-17T00:21:56;0.00;;;0.00;;
6695;SDS011;3385;48.928;10.330;2022-09-17T00:24:22;0.00;;;0.00;;
6695;SDS011;3385;48.928;10.330;2022-09-17T00:26:48;0.20;;;0.00;;
6695;SDS011;3385;48.928;10.330;2022-09-17T00:29:14;0.00;;;0.00;;
6695;SDS011;3385;48.928;10.330;2022-09-17T00:31:40;0.10;;;0.00;;
6695;SDS011;3385;48.928;10.330;2022-09-17T00:34:06;0.00;;;0.00;;
6695;SDS011;3385;48.928;10.330;2022-09-17T00:36:35;0.00;;;0.00;;
6695;SDS011;3385;48.928;10.330;2022-09-17T00:39:03;0.00;;;0.00;;
6695;SDS011;3385;48.928;10.330;2022-09-17T00:41:31;0.20;;;0.00;;
6695;SDS011;3385;48.928;10.330;2022-09-17T00:43:59;0.10;;;0.00;;
6695;SDS011;3385;48.928;10.330;2022-09-17T00:46:44;0.00;;;0.00;;
6695;SDS011;3385;48.928;10.330;2022-09-17T00:52:06;0.00;;;0.00;;
6695;SDS011;3385;48.928;10.330;2022-09-17T00:54:33;0.00;;;0.00;;
6695;SDS011;3385;48.928;10.330;2022-09-17T00:57:00;0.00;;;0.00;;
6695;SDS011;3385;48.928;10.330;2022-09-17T00:59:27;0.00;;;0.00;;
6695;SDS011;3385;48.928;10.330;2022-09-17T01:01:56;0.00;;;0.00;;
6695;SDS011;3385;48.928;10.330;2022-09-17T01:04:23;0.10;;;0.00;;
6695;SDS011;3385;48.928;10.330;2022-09-17T01:09:53;0.25;;;0.00;;
6695;SDS011;3385;48.928;10.330;2022-09-17T01:12:48;0.00;;;0.00;;
6695;SDS011;3385;48.928;10.330;2022-09-17T01:15:34;0.10;;;0.00;;
6695;SDS011;3385;48.928;10.330;2022-09-17T01:35:19;0.00;;;0.00;;
6695;SDS011;3385;48.928;10.330;2022-09-17T01:41:04;0.20;;;0.00;;
6695;SDS011;3385;48.928;10.330;2022-09-17T01:45:58;0.00;;;0.00;;
6695;SDS011;3385;48.928;10.330;2022-09-17T01:48:30;0.10;;;0.00;;
6695;SDS011;3385;48.928;10.330;2022-09-17T01:51:12;0.00;;;0.00;;
6695;SDS011;3385;48.928;10.330;2022-09-17T01:53:47;0.00;;;0.00;;
6695;SDS011;3385;48.928;10.330;2022-09-17T01:56:23;0.00;;;0.00;;
6695;SDS011;3385;48.928;10.330;2022-09-17T01:59:06;0.00;;;0.00;;
6695;SDS011;3385;48.928;10.330;2022-09-17T02:01:37;0.00;;;0.00;;
6695;SDS011;3385;48.928;10.330;2022-09-17T02:04:08;0.00;;;0.00;;
6695;SDS011;3385;48.928;10.330;2022-09-17T02:06:42;0.00;;;0.00;;
6695;SDS011;3385;48.928;10.330;2022-09-17T02:09:13;0.10;;;0.00;;
6695;SDS011;3385;48.928;10.330;2022-09-17T02:11:45;0.00;;;0.00;;
6695;SDS011;3385;48.928;10.330;2022-09-17T02:14:17;0.00;;;0.00;;
6695;SDS011;3385;48.928;10.330;2022-09-17T02:16:54;0.00;;;0.00;;
6695;SDS011;3385;48.928;10.330;2022-09-17T02:19:28;0.00;;;0.00;;
6695;SDS011;3385;48.928;10.330;2022-09-17T02:24:39;0.00;;;0.00;;
6695;SDS011;3385;48.928;10.330;2022-09-17T02:29:55;0.10;;;0.10;;
6695;SDS011;3385;48.928;10.330;2022-09-17T02:32:20;0.13;;;0.10;;
6695;SDS011;3385;48.928;10.330;2022-09-17T02:34:48;0.10;;;0.00;;
6695;SDS011;3385;48.928;10.330;2022-09-17T02:37:14;0.00;;;0.00;;
6695;SDS011;3385;48.928;10.330;2022-09-17T02:39:40;0.00;;;0.00;;
6695;SDS011;3385;48.928;10.330;2022-09-17T02:48:05;0.00;;;0.00;;
6695;SDS011;3385;48.928;10.330;2022-09-17T02:55:58;0.00;;;0.00;;
6695;SDS011;3385;48.928;10.330;2022-09-17T02:58:48;0.10;;;0.00;;
6695;SDS011;3385;48.928;10.330;2022-09-17T03:01:22;0.10;;;0.10;;
6695;SDS011;3385;48.928;10.330;2022-09-17T03:03:53;0.10;;;0.10;;
6695;SDS011;3385;48.928;10.330;2022-09-17T03:06:22;0.10;;;0.00;;
6695;SDS011;3385;48.928;10.330;2022-09-17T03:08:48;0.00;;;0.00;;
6695;SDS011;3385;48.928;10.330;2022-09-17T03:11:14;0.10;;;0.08;;
6695;SDS011;3385;48.928;10.330;2022-09-17T03:13:40;0.32;;;0.13;;
6695;SDS011;3385;48.928;10.330;2022-09-17T03:16:06;0.28;;;0.25;;
6695;SDS011;3385;48.928;10.330;2022-09-17T03:18:32;0.60;;;0.20;;
6695;SDS011;3385;48.928;10.330;2022-09-17T03:20:57;0.20;;;0.00;;
6695;SDS011;3385;48.928;10.330;2022-09-17T03:23:23;0.20;;;0.10;;
6695;SDS011;3385;48.928;10.330;2022-09-17T03:25:50;0.13;;;0.13;;
6695;SDS011;3385;48.928;10.330;2022-09-17T03:28:16;0.15;;;0.10;;
6695;SDS011;3385;48.928;10.330;2022-09-17T03:30:45;1.40;;;1.40;;
6695;SDS011;3385;48.928;10.330;2022-09-17T03:33:11;0.60;;;0.50;;
6695;SDS011;3385;48.928;10.330;2022-09-17T03:35:37;1.17;;;1.17;;
6695;SDS011;3385;48.928;10.330;2022-09-17T03:38:06;0.47;;;0.47;;
6695;SDS011;3385;48.928;10.330;2022-09-17T03:40:32;0.77;;;0.77;;
6695;SDS011;3385;48.928;10.330;2022-09-17T03:42:57;1.27;;;1.27;;
6695;SDS011;3385;48.928;10.330;2022-09-17T03:45:23;0.00;;;0.00;;
6695;SDS011;3385;48.928;10.330;2022-09-17T03:47:49;0.00;;;0.00;;
6695;SDS011;3385;48.928;10.330;2022-09-17T03:50:14;0.00;;;0.00;;
6695;SDS011;3385;48.928;10.330;2022-09-17T03:52:41;0.00;;;0.00;;
6695;SDS011;3385;48.928;10.330;2022-09-17T03:55:07;0.00;;;0.00;;
6695;SDS011;3385;48.928;10.330;2022-09-17T03:57:33;0.00;;;0.00;;
6695;SDS011;3385;48.928;10.330;2022-09-17T03:59:59;0.00;;;0.00;;
6695;SDS011;3385;48.928;10.330;2022-09-17T04:02:26;0.00;;;0.00;;
6695;SDS011;3385;48.928;10.330;2022-09-17T04:04:52;0.00;;;0.00;;
6695;SDS011;3385;48.928;10.330;2022-09-17T04:07:18;0.00;;;0.00;;
6695;SDS011;3385;48.928;10.330;2022-09-17T04:09:43;0.00;;;0.00;;
6695;SDS011;3385;48.928;10.330;2022-09-17T04:12:09;0.00;;;0.00;;
6695;SDS011;3385;48.928;10.330;2022-09-17T04:14:35;0.00;;;0.00;;
6695;SDS011;3385;48.928;10.330;2022-09-17T04:17:00;0.00;;;0.00;;
6695;SDS011;3385;48.928;10.330;2022-09-17T04:19:26;0.38;;;0.10;;
6695;SDS011;3385;48.928;10.330;2022-09-17T04:21:52;0.45;;;0.17;;
6695;SDS011;3385;48.928;10.330;2022-09-17T04:24:18;1.10;;;1.10;;
6695;SDS011;3385;48.928;10.330;2022-09-17T04:26:43;0.10;;;0.10;;
6695;SDS011;3385;48.928;10.330;2022-09-17T04:29:09;0.20;;;0.20;;
6695;SDS011;3385;48.928;10.330;2022-09-17T04:31:35;0.00;;;0.00;;
6695;SDS011;3385;48.928;10.330;2022-09-17T04:34:01;0.00;;;0.00;;
6695;SDS011;3385;48.928;10.330;2022-09-17T04:36:26;0.25;;;0.25;;
6695;SDS011;3385;48.928;10.330;2022-09-17T04:38:52;0.10;;;0.10;;
6695;SDS011;3385;48.928;10.330;2022-09-17T04:41:18;0.55;;;0.30;;
6695;SDS011;3385;48.928;10.330;2022-09-17T04:43:44;0.38;;;0.25;;
6695;SDS011;3385;48.928;10.330;2022-09-17T04:46:09;1.65;;;0.40;;
6695;SDS011;3385;48.928;10.330;2022-09-17T04:48:35;0.52;;;0.52;;
6695;SDS011;3385;48.928;10.330;2022-09-17T04:51:02;0.60;;;0.30;;
6695;SDS011;3385;48.928;10.330;2022-09-17T04:53:28;0.93;;;0.57;;
6695;SDS011;3385;48.928;10.330;2022-09-17T04:55:53;0.38;;;0.32;;
6695;SDS011;3385;48.928;10.330;2022-09-17T04:58:19;1.67;;;1.58;;
6695;SDS011;3385;48.928;10.330;2022-09-17T05:00:45;1.60;;;1.50;;
6695;SDS011;3385;48.928;10.330;2022-09-17T05:03:10;1.00;;;0.80;;
6695;SDS011;3385;48.928;10.330;2022-09-17T05:05:36;0.30;;;0.10;;
6695;SDS011;3385;48.928;10.330;2022-09-17T05:08:02;0.52;;;0.30;;
6695;SDS011;3385;48.928;10.330;2022-09-17T05:10:27;0.47;;;0.25;;
6695;SDS011;3385;48.928;10.330;2022-09-17T05:12:54;0.35;;;0.20;;
6695;SDS011;3385;48.928;10.330;2022-09-17T05:15:21;1.13;;;1.13;;
6695;SDS011;3385;48.928;10.330;2022-09-17T05:17:48;0.35;;;0.13;;
6695;SDS011;3385;48.928;10.330;2022-09-17T05:20:14;0.88;;;0.20;;
6695;SDS011;3385;48.928;10.330;2022-09-17T05:22:42;1.00;;;0.40;;
6695;SDS011;3385;48.928;10.330;2022-09-17T05:25:18;0.10;;;0.10;;
6695;SDS011;3385;48.928;10.330;2022-09-17T05:27:48;0.75;;;0.30;;
6695;SDS011;3385;48.928;10.330;2022-09-17T05:30:14;0.52;;;0.20;;
6695;SDS011;3385;48.928;10.330;2022-09-17T05:32:39;1.48;;;1.38;;
6695;SDS011;3385;48.928;10.330;2022-09-17T05:35:05;0.68;;;0.30;;
6695;SDS011;3385;48.928;10.330;2022-09-17T05:37:32;0.32;;;0.10;;
6695;SDS011;3385;48.928;10.330;2022-09-17T05:39:58;0.43;;;0.20;;
6695;SDS011;3385;48.928;10.330;2022-09-17T05:42:23;0.68;;;0.25;;
6695;SDS011;3385;48.928;10.330;2022-09-17T05:44:49;0.20;;;0.20;;
6695;SDS011;3385;48.928;10.330;2022-09-17T05:47:15;1.73;;;1.67;;
6695;SDS011;3385;48.928;10.330;2022-09-17T05:49:41;0.40;;;0.20;;
6695;SDS011;3385;48.928;10.330;2022-09-17T05:52:06;2.10;;;2.00;;
6695;SDS011;3385;48.928;10.330;2022-09-17T05:54:32;0.20;;;0.10;;
6695;SDS011;3385;48.928;10.330;2022-09-17T05:56:58;0.60;;;0.30;;
6695;SDS011;3385;48.928;10.330;2022-09-17T05:59:23;0.47;;;0.30;;
6695;SDS011;3385;48.928;10.330;2022-09-17T06:01:49;0.82;;;0.80;;
6695;SDS011;3385;48.928;10.330;2022-09-17T06:04:15;0.30;;;0.22;;
6695;SDS011;3385;48.928;10.330;2022-09-17T06:06:42;1.42;;;1.42;;
6695;SDS011;3385;48.928;10.330;2022-09-17T06:09:08;1.15;;;1.05;;
6695;SDS011;3385;48.928;10.330;2022-09-17T06:11:34;0.40;;;0.28;;
6695;SDS011;3385;48.928;10.330;2022-09-17T06:14:00;0.28;;;0.10;;
6695;SDS011;3385;48.928;10.330;2022-09-17T06:16:26;0.30;;;0.10;;
6695;SDS011;3385;48.928;10.330;2022-09-17T06:18:52;0.50;;;0.30;;
6695;SDS011;3385;48.928;10.330;2022-09-17T06:21:19;0.28;;;0.20;;
6695;SDS011;3385;48.928;10.330;2022-09-17T06:23:48;0.45;;;0.20;;
6695;SDS011;3385;48.928;10.330;2022-09-17T06:26:14;0.28;;;0.10;;
6695;SDS011;3385;48.928;10.330;2022-09-17T06:28:40;0.08;;;0.08;;
6695;SDS011;3385;48.928;10.330;2022-09-17T06:31:07;0.17;;;0.17;;
6695;SDS011;3385;48.928;10.330;2022-09-17T06:33:33;0.45;;;0.45;;
6695;SDS011;3385;48.928;10.330;2022-09-17T06:36:04;0.05;;;0.05;;
6695;SDS011;3385;48.928;10.330;2022-09-17T06:38:32;0.20;;;0.10;;
6695;SDS011;3385;48.928;10.330;2022-09-17T06:40:59;0.10;;;0.10;;
6695;SDS011;3385;48.928;10.330;2022-09-17T06:43:24;0.00;;;0.00;;
6695;SDS011;3385;48.928;10.330;2022-09-17T06:45:54;0.17;;;0.17;;
6695;SDS011;3385;48.928;10.330;2022-09-17T06:48:29;0.25;;;0.25;;
6695;SDS011;3385;48.928;10.330;2022-09-17T06:51:00;0.05;;;0.05;;
6695;SDS011;3385;48.928;10.330;2022-09-17T06:53:28;0.10;;;0.03;;
6695;SDS011;3385;48.928;10.330;2022-09-17T06:55:55;0.10;;;0.00;;
6695;SDS011;3385;48.928;10.330;2022-09-17T06:58:22;0.20;;;0.00;;
6695;SDS011;3385;48.928;10.330;2022-09-17T07:00:49;0.20;;;0.10;;
6695;SDS011;3385;48.928;10.330;2022-09-17T07:03:15;0.00;;;0.00;;
6695;SDS011;3385;48.928;10.330;2022-09-17T07:05:42;0.00;;;0.00;;
6695;SDS011;3385;48.928;10.330;2022-09-17T07:08:08;0.20;;;0.20;;
6695;SDS011;3385;48.928;10.330;2022-09-17T07:10:35;0.10;;;0.10;;
6695;SDS011;3385;48.928;10.330;2022-09-17T07:13:01;0.00;;;0.00;;
6695;SDS011;3385;48.928;10.330;2022-09-17T07:15:28;0.10;;;0.00;;
6695;SDS011;3385;48.928;10.330;2022-09-17T07:17:54;0.03;;;0.00;;
6695;SDS011;3385;48.928;10.330;2022-09-17T07:20:20;0.00;;;0.00;;
6695;SDS011;3385;48.928;10.330;2022-09-17T07:22:53;0.00;;;0.00;;
6695;SDS011;3385;48.928;10.330;2022-09-17T07:25:20;0.00;;;0.00;;
6695;SDS011;3385;48.928;10.330;2022-09-17T07:27:46;0.00;;;0.00;;
6695;SDS011;3385;48.928;10.330;2022-09-17T07:30:11;0.20;;;0.10;;
6695;SDS011;3385;48.928;10.330;2022-09-17T07:32:37;0.00;;;0.00;;
6695;SDS011;3385;48.928;10.330;2022-09-17T07:35:03;0.00;;;0.00;;
6695;SDS011;3385;48.928;10.330;2022-09-17T07:37:29;0.00;;;0.00;;
6695;SDS011;3385;48.928;10.330;2022-09-17T07:39:55;0.00;;;0.00;;
6695;SDS011;3385;48.928;10.330;2022-09-17T07:42:20;0.00;;;0.00;;
6695;SDS011;3385;48.928;10.330;2022-09-17T07:44:46;0.00;;;0.00;;
6695;SDS011;3385;48.928;10.330;2022-09-17T07:47:12;0.00;;;0.00;;
6695;SDS011;3385;48.928;10.330;2022-09-17T07:49:37;0.00;;;0.00;;
6695;SDS011;3385;48.928;10.330;2022-09-17T07:52:03;0.00;;;0.00;;
6695;SDS011;3385;48.928;10.330;2022-09-17T07:54:31;0.00;;;0.00;;
6695;SDS011;3385;48.928;10.330;2022-09-17T07:57:01;0.00;;;0.00;;
6695;SDS011;3385;48.928;10.330;2022-09-17T07:59:28;0.00;;;0.00;;
6695;SDS011;3385;48.928;10.330;2022-09-17T08:01:53;0.00;;;0.00;;
6695;SDS011;3385;48.928;10.330;2022-09-17T08:04:19;0.00;;;0.00;;
6695;SDS011;3385;48.928;10.330;2022-09-17T08:06:45;0.00;;;0.00;;
6695;SDS011;3385;48.928;10.330;2022-09-17T08:09:14;0.00;;;0.00;;
6695;SDS011;3385;48.928;10.330;2022-09-17T08:11:40;0.00;;;0.00;;
6695;SDS011;3385;48.928;10.330;2022-09-17T08:14:10;0.00;;;0.00;;
6695;SDS011;3385;48.928;10.330;2022-09-17T08:16:38;0.00;;;0.00;;
6695;SDS011;3385;48.928;10.330;2022-09-17T08:19:04;0.00;;;0.00;;
6695;SDS011;3385;48.928;10.330;2022-09-17T08:21:29;0.00;;;0.00;;
6695;SDS011;3385;48.928;10.330;2022-09-17T08:23:55;0.00;;;0.00;;
6695;SDS011;3385;48.928;10.330;2022-09-17T08:26:21;0.00;;;0.00;;
6695;SDS011;3385;48.928;10.330;2022-09-17T08:28:49;0.00;;;0.00;;
6695;SDS011;3385;48.928;10.330;2022-09-17T08:31:18;0.00;;;0.00;;
6695;SDS011;3385;48.928;10.330;2022-09-17T08:33:45;0.00;;;0.00;;
6695;SDS011;3385;48.928;10.330;2022-09-17T08:36:12;0.00;;;0.00;;
6695;SDS011;3385;48.928;10.330;2022-09-17T08:38:38;0.00;;;0.00;;
6695;SDS011;3385;48.928;10.330;2022-09-17T08:43:40;0.00;;;0.00;;
6695;SDS011;3385;48.928;10.330;2022-09-17T08:46:25;0.00;;;0.00;;
6695;SDS011;3385;48.928;10.330;2022-09-17T08:48:55;0.00;;;0.00;;
6695;SDS011;3385;48.928;10.330;2022-09-17T08:51:47;0.00;;;0.00;;
6695;SDS011;3385;48.928;10.330;2022-09-17T08:54:38;0.00;;;0.00;;
6695;SDS011;3385;48.928;10.330;2022-09-17T08:57:15;0.10;;;0.10;;
6695;SDS011;3385;48.928;10.330;2022-09-17T09:00:08;0.00;;;0.00;;
6695;SDS011;3385;48.928;10.330;2022-09-17T09:05:44;0.00;;;0.00;;
6695;SDS011;3385;48.928;10.330;2022-09-17T09:08:27;0.00;;;0.00;;
6695;SDS011;3385;48.928;10.330;2022-09-17T09:10:58;0.10;;;0.10;;
6695;SDS011;3385;48.928;10.330;2022-09-17T09:13:28;0.00;;;0.00;;
6695;SDS011;3385;48.928;10.330;2022-09-17T09:16:21;0.00;;;0.00;;
6695;SDS011;3385;48.928;10.330;2022-09-17T09:18:54;0.00;;;0.00;;
6695;SDS011;3385;48.928;10.330;2022-09-17T09:21:43;0.10;;;0.10;;
6695;SDS011;3385;48.928;10.330;2022-09-17T09:24:39;0.10;;;0.10;;
6695;SDS011;3385;48.928;10.330;2022-09-17T09:34:57;0.00;;;0.00;;
6695;SDS011;3385;48.928;10.330;2022-09-17T09:37:27;0.00;;;0.00;;
6695;SDS011;3385;48.928;10.330;2022-09-17T09:40:00;0.10;;;0.10;;
6695;SDS011;3385;48.928;10.330;2022-09-17T09:42:49;0.25;;;0.25;;
6695;SDS011;3385;48.928;10.330;2022-09-17T09:45:27;0.00;;;0.00;;
6695;SDS011;3385;48.928;10.330;2022-09-17T09:48:22;0.00;;;0.00;;
6695;SDS011;3385;48.928;10.330;2022-09-17T09:59:01;0.30;;;0.30;;
6695;SDS011;3385;48.928;10.330;2022-09-17T10:01:31;0.20;;;0.20;;
6695;SDS011;3385;48.928;10.330;2022-09-17T10:04:00;0.57;;;0.57;;
6695;SDS011;3385;48.928;10.330;2022-09-17T10:06:28;0.00;;;0.00;;
6695;SDS011;3385;48.928;10.330;2022-09-17T10:11:22;0.00;;;0.00;;
6695;SDS011;3385;48.928;10.330;2022-09-17T10:13:49;0.20;;;0.20;;
6695;SDS011;3385;48.928;10.330;2022-09-17T10:16:16;0.03;;;0.03;;
6695;SDS011;3385;48.928;10.330;2022-09-17T10:18:47;0.10;;;0.10;;
6695;SDS011;3385;48.928;10.330;2022-09-17T10:23:45;0.00;;;0.00;;
6695;SDS011;3385;48.928;10.330;2022-09-17T10:26:21;0.00;;;0.00;;
6695;SDS011;3385;48.928;10.330;2022-09-17T10:28:50;0.00;;;0.00;;
6695;SDS011;3385;48.928;10.330;2022-09-17T10:31:18;0.32;;;0.32;;
6695;SDS011;3385;48.928;10.330;2022-09-17T10:33:57;0.10;;;0.10;;
6695;SDS011;3385;48.928;10.330;2022-09-17T10:36:43;0.00;;;0.00;;
6695;SDS011;3385;48.928;10.330;2022-09-17T10:42:13;0.00;;;0.00;;
6695;SDS011;3385;48.928;10.330;2022-09-17T10:52:30;0.00;;;0.00;;
6695;SDS011;3385;48.928;10.330;2022-09-17T11:00:18;1.23;;;1.23;;
6695;SDS011;3385;48.928;10.330;2022-09-17T11:05:47;2.22;;;2.13;;
6695;SDS011;3385;48.928;10.330;2022-09-17T11:22:01;17.60;;;16.52;;
6695;SDS011;3385;48.928;10.330;2022-09-17T11:24:42;5.60;;;5.18;;
6695;SDS011;3385;48.928;10.330;2022-09-17T11:35:30;5.75;;;5.30;;
6695;SDS011;3385;48.928;10.330;2022-09-17T11:38:11;64.43;;;59.10;;
6695;SDS011;3385;48.928;10.330;2022-09-17T11:48:47;30.75;;;28.50;;
6695;SDS011;3385;48.928;10.330;2022-09-17T11:57:15;43.05;;;38.58;;
6695;SDS011;3385;48.928;10.330;2022-09-17T11:59:58;78.72;;;63.05;;
6695;SDS011;3385;48.928;10.330;2022-09-17T12:06:08;68.35;;;62.33;;
6695;SDS011;3385;48.928;10.330;2022-09-17T12:08:44;128.05;;;114.30;;
6695;SDS011;3385;48.928;10.330;2022-09-17T12:11:25;121.70;;;105.38;;
6695;SDS011;3385;48.928;10.330;2022-09-17T12:16:44;3.42;;;1.65;;
6695;SDS011;3385;48.928;10.330;2022-09-17T12:22:21;10.27;;;7.10;;
6695;SDS011;3385;48.928;10.330;2022-09-17T12:24:50;41.90;;;24.33;;
6695;SDS011;3385;48.928;10.330;2022-09-17T12:27:50;42.03;;;25.17;;
6695;SDS011;3385;48.928;10.330;2022-09-17T12:30:12;15.98;;;6.85;;
6695;SDS011;3385;48.928;10.330;2022-09-17T12:35:48;29.25;;;15.15;;
6695;SDS011;3385;48.928;10.330;2022-09-17T12:52:53;8.43;;;7.53;;
6695;SDS011;3385;48.928;10.330;2022-09-17T12:59:18;4.57;;;2.55;;
6695;SDS011;3385;48.928;10.330;2022-09-17T13:04:06;0.10;;;0.10;;
6695;SDS011;3385;48.928;10.330;2022-09-17T13:09:44;2.75;;;2.03;;
6695;SDS011;3385;48.928;10.330;2022-09-17T13:12:44;6.03;;;4.57;;
6695;SDS011;3385;48.928;10.330;2022-09-17T13:15:34;16.17;;;13.02;;
6695;SDS011;3385;48.928;10.330;2022-09-17T13:21:44;18.52;;;12.90;;
6695;SDS011;3385;48.928;10.330;2022-09-17T13:24:21;4.78;;;3.83;;
6695;SDS011;3385;48.928;10.330;2022-09-17T13:26:52;0.10;;;0.10;;
6695;SDS011;3385;48.928;10.330;2022-09-17T13:37:38;8.77;;;6.93;;
6695;SDS011;3385;48.928;10.330;2022-09-17T13:40:39;0.00;;;0.00;;
6695;SDS011;3385;48.928;10.330;2022-09-17T13:45:28;0.00;;;0.00;;
6695;SDS011;3385;48.928;10.330;2022-09-17T13:47:58;0.00;;;0.00;;
6695;SDS011;3385;48.928;10.330;2022-09-17T13:50:45;0.00;;;0.00;;
6695;SDS011;3385;48.928;10.330;2022-09-17T13:55:42;2.65;;;2.55;;
6695;SDS011;3385;48.928;10.330;2022-09-17T14:05:55;0.00;;;0.00;;
6695;SDS011;3385;48.928;10.330;2022-09-17T14:13:53;3.30;;;3.20;;
6695;SDS011;3385;48.928;10.330;2022-09-17T14:19:24;0.20;;;0.20;;
6695;SDS011;3385;48.928;10.330;2022-09-17T14:24:50;0.00;;;0.00;;
6695;SDS011;3385;48.928;10.330;2022-09-17T14:27:26;7.70;;;7.00;;
6695;SDS011;3385;48.928;10.330;2022-09-17T14:35:21;24.88;;;21.73;;
6695;SDS011;3385;48.928;10.330;2022-09-17T14:37:57;23.52;;;20.98;;
6695;SDS011;3385;48.928;10.330;2022-09-17T14:40:35;24.75;;;21.73;;
6695;SDS011;3385;48.928;10.330;2022-09-17T14:43:09;30.77;;;20.23;;
6695;SDS011;3385;48.928;10.330;2022-09-17T14:45:54;56.08;;;42.10;;
6695;SDS011;3385;48.928;10.330;2022-09-17T14:48:29;26.45;;;20.77;;
6695;SDS011;3385;48.928;10.330;2022-09-17T14:53:42;42.90;;;33.53;;
6695;SDS011;3385;48.928;10.330;2022-09-17T14:56:27;13.20;;;6.63;;
6695;SDS011;3385;48.928;10.330;2022-09-17T14:58:53;37.50;;;22.73;;
6695;SDS011;3385;48.928;10.330;2022-09-17T15:01:21;0.10;;;0.10;;
6695;SDS011;3385;48.928;10.330;2022-09-17T15:06:36;0.68;;;0.63;;
6695;SDS011;3385;48.928;10.330;2022-09-17T15:09:02;27.20;;;17.90;;
6695;SDS011;3385;48.928;10.330;2022-09-17T15:11:28;32.53;;;22.85;;
6695;SDS011;3385;48.928;10.330;2022-09-17T15:13:58;0.10;;;0.10;;
6695;SDS011;3385;48.928;10.330;2022-09-17T15:16:24;8.38;;;6.20;;
6695;SDS011;3385;48.928;10.330;2022-09-17T15:18:55;0.10;;;0.10;;
6695;SDS011;3385;48.928;10.330;2022-09-17T15:24:16;0.30;;;0.30;;
6695;SDS011;3385;48.928;10.330;2022-09-17T15:26:57;0.00;;;0.00;;
6695;SDS011;3385;48.928;10.330;2022-09-17T15:29:28;4.80;;;3.53;;
6695;SDS011;3385;48.928;10.330;2022-09-17T15:31:56;4.95;;;4.25;;
6695;SDS011;3385;48.928;10.330;2022-09-17T15:34:22;23.85;;;18.85;;
6695;SDS011;3385;48.928;10.330;2022-09-17T15:37:15;0.10;;;0.10;;
6695;SDS011;3385;48.928;10.330;2022-09-17T15:39:49;0.00;;;0.00;;
6695;SDS011;3385;48.928;10.330;2022-09-17T15:42:19;14.57;;;11.07;;
6695;SDS011;3385;48.928;10.330;2022-09-17T15:44:46;5.47;;;3.95;;
6695;SDS011;3385;48.928;10.330;2022-09-17T15:58:18;16.35;;;13.52;;
6695;SDS011;3385;48.928;10.330;2022-09-17T16:08:50;25.23;;;13.90;;
6695;SDS011;3385;48.928;10.330;2022-09-17T16:11:21;6.25;;;5.65;;
6695;SDS011;3385;48.928;10.330;2022-09-17T16:13:49;0.73;;;0.57;;
6695;SDS011;3385;48.928;10.330;2022-09-17T16:16:16;0.15;;;0.15;;
6695;SDS011;3385;48.928;10.330;2022-09-17T16:18:59;30.58;;;27.75;;
6695;SDS011;3385;48.928;10.330;2022-09-17T16:21:25;52.28;;;43.33;;
6695;SDS011;3385;48.928;10.330;2022-09-17T16:23:51;0.00;;;0.00;;
6695;SDS011;3385;48.928;10.330;2022-09-17T16:26:18;0.00;;;0.00;;
6695;SDS011;3385;48.928;10.330;2022-09-17T16:28:56;11.13;;;8.75;;
6695;SDS011;3385;48.928;10.330;2022-09-17T16:31:26;0.00;;;0.00;;
6695;SDS011;3385;48.928;10.330;2022-09-17T16:33:53;4.45;;;3.03;;
6695;SDS011;3385;48.928;10.330;2022-09-17T16:36:19;12.73;;;11.45;;
6695;SDS011;3385;48.928;10.330;2022-09-17T16:38:45;0.32;;;0.32;;
6695;SDS011;3385;48.928;10.330;2022-09-17T16:41:10;42.65;;;36.92;;
6695;SDS011;3385;48.928;10.330;2022-09-17T16:43:36;0.00;;;0.00;;
6695;SDS011;3385;48.928;10.330;2022-09-17T16:46:05;0.00;;;0.00;;
6695;SDS011;3385;48.928;10.330;2022-09-17T16:48:33;6.60;;;6.03;;
6695;SDS011;3385;48.928;10.330;2022-09-17T16:50:59;0.00;;;0.00;;
6695;SDS011;3385;48.928;10.330;2022-09-17T16:53:30;1.90;;;1.80;;
6695;SDS011;3385;48.928;10.330;2022-09-17T16:55:56;5.78;;;5.32;;
6695;SDS011;3385;48.928;10.330;2022-09-17T16:58:22;4.60;;;4.30;;
6695;SDS011;3385;48.928;10.330;2022-09-17T17:00:47;3.10;;;2.92;;
6695;SDS011;3385;48.928;10.330;2022-09-17T17:03:13;0.32;;;0.30;;
6695;SDS011;3385;48.928;10.330;2022-09-17T17:05:40;0.20;;;0.20;;
6695;SDS011;3385;48.928;10.330;2022-09-17T17:08:07;7.95;;;7.43;;
6695;SDS011;3385;48.928;10.330;2022-09-17T17:10:33;0.50;;;0.50;;
6695;SDS011;3385;48.928;10.330;2022-09-17T17:13:01;1.95;;;1.85;;
6695;SDS011;3385;48.928;10.330;2022-09-17T17:15:28;0.40;;;0.40;;
6695;SDS011;3385;48.928;10.330;2022-09-17T17:17:54;2.95;;;2.78;;
6695;SDS011;3385;48.928;10.330;2022-09-17T17:20:20;1.10;;;1.00;;
6695;SDS011;3385;48.928;10.330;2022-09-17T17:22:47;3.55;;;3.35;;
6695;SDS011;3385;48.928;10.330;2022-09-17T17:25:14;3.92;;;3.72;;
6695;SDS011;3385;48.928;10.330;2022-09-17T17:27:40;0.60;;;0.35;;
6695;SDS011;3385;48.928;10.330;2022-09-17T17:30:08;2.88;;;2.67;;
6695;SDS011;3385;48.928;10.330;2022-09-17T17:32:41;1.98;;;1.88;;
6695;SDS011;3385;48.928;10.330;2022-09-17T17:35:07;1.70;;;1.65;;
6695;SDS011;3385;48.928;10.330;2022-09-17T17:37:33;0.00;;;0.00;;
6695;SDS011;3385;48.928;10.330;2022-09-17T17:39:59;0.70;;;0.70;;
6695;SDS011;3385;48.928;10.330;2022-09-17T17:42:25;0.60;;;0.60;;
6695;SDS011;3385;48.928;10.330;2022-09-17T17:44:51;0.47;;;0.47;;
6695;SDS011;3385;48.928;10.330;2022-09-17T17:47:19;0.15;;;0.15;;
6695;SDS011;3385;48.928;10.330;2022-09-17T17:49:45;0.30;;;0.30;;
6695;SDS011;3385;48.928;10.330;2022-09-17T17:52:12;0.30;;;0.30;;
6695;SDS011;3385;48.928;10.330;2022-09-17T17:54:38;0.32;;;0.32;;
6695;SDS011;3385;48.928;10.330;2022-09-17T17:57:04;0.30;;;0.30;;
6695;SDS011;3385;48.928;10.330;2022-09-17T17:59:29;0.40;;;0.40;;
6695;SDS011;3385;48.928;10.330;2022-09-17T18:01:55;0.10;;;0.10;;
6695;SDS011;3385;48.928;10.330;2022-09-17T18:04:21;0.10;;;0.10;;
6695;SDS011;3385;48.928;10.330;2022-09-17T18:06:46;0.52;;;0.52;;
6695;SDS011;3385;48.928;10.330;2022-09-17T18:09:13;1.20;;;1.20;;
6695;SDS011;3385;48.928;10.330;2022-09-17T18:11:39;0.10;;;0.10;;
6695;SDS011;3385;48.928;10.330;2022-09-17T18:14:04;0.30;;;0.30;;
6695;SDS011;3385;48.928;10.330;2022-09-17T18:16:30;2.67;;;2.58;;
6695;SDS011;3385;48.928;10.330;2022-09-17T18:18:56;0.60;;;0.60;;
6695;SDS011;3385;48.928;10.330;2022-09-17T18:21:22;1.23;;;1.13;;
6695;SDS011;3385;48.928;10.330;2022-09-17T18:23:49;1.40;;;1.38;;
6695;SDS011;3385;48.928;10.330;2022-09-17T18:26:17;0.65;;;0.65;;
6695;SDS011;3385;48.928;10.330;2022-09-17T18:28:47;1.15;;;1.15;;
6695;SDS011;3385;48.928;10.330;2022-09-17T18:31:23;0.95;;;0.95;;
6695;SDS011;3385;48.928;10.330;2022-09-17T18:33:54;0.80;;;0.80;;
6695;SDS011;3385;48.928;10.330;2022-09-17T18:36:27;0.38;;;0.38;;
6695;SDS011;3385;48.928;10.330;2022-09-17T18:38:55;0.40;;;0.40;;
6695;SDS011;3385;48.928;10.330;2022-09-17T18:41:25;1.20;;;1.20;;
6695;SDS011;3385;48.928;10.330;2022-09-17T18:43:52;0.03;;;0.03;;
6695;SDS011;3385;48.928;10.330;2022-09-17T18:46:18;0.40;;;0.40;;
6695;SDS011;3385;48.928;10.330;2022-09-17T18:48:44;0.20;;;0.20;;
6695;SDS011;3385;48.928;10.330;2022-09-17T18:53:37;0.00;;;0.00;;
6695;SDS011;3385;48.928;10.330;2022-09-17T18:56:05;0.00;;;0.00;;
6695;SDS011;3385;48.928;10.330;2022-09-17T18:58:39;0.00;;;0.00;;
6695;SDS011;3385;48.928;10.330;2022-09-17T19:01:06;0.00;;;0.00;;
6695;SDS011;3385;48.928;10.330;2022-09-17T19:03:32;0.00;;;0.00;;
6695;SDS011;3385;48.928;10.330;2022-09-17T19:05:59;0.00;;;0.00;;